Time;durP1;ratioP1;P1;durP2;ratioP2;P2;SDS_P1;SDS_P2;PMS_P1;PMS_P2;Temp;Humidity;BMP_temperature;BMP_pressure;BME280_temperature;BME280_humidity;BME280_pressure;Samples;Min_cycle;Max_cycle;Signal;HPM_P1;HPM_P2
2022/06/13 14:08:09;;;;;;;6.93;5.38;;;29.00;99.90;;;;;;6158946;23;20466;-89
2022/06/13 14:10:42;;;;;;;8.30;6.15;;;29.00;99.90;;;;;;6137583;23;20005;-89
2022/06/13 14:13:22;;;;;;;6.30;5.90;;;29.10;99.90;;;;;;6137401;23;20020;-90
2022/06/13 14:15:49;;;;;;;5.78;5.30;;;29.00;99.90;;;;;;6142168;23;20012;-90
2022/06/13 14:18:21;;;;;;;6.38;5.68;;;28.90;99.90;;;;;;6191722;23;20434;-90
2022/06/13 14:20:48;;;;;;;6.47;5.85;;;28.70;99.90;;;;;;6191663;23;20083;-89
2022/06/13 14:23:42;;;;;;;6.75;6.13;;;28.70;99.90;;;;;;6166775;23;20005;-90
2022/06/13 14:26:33;;;;;;;6.30;5.70;;;28.90;99.90;;;;;;6166593;23;20020;-91
2022/06/13 14:29:28;;;;;;;7.72;6.97;;;29.20;99.90;;;;;;6191294;23;20016;-90
2022/06/13 14:32:04;;;;;;;7.28;6.68;;;29.20;99.90;;;;;;6178330;23;20093;-91
2022/06/13 14:35:15;;;;;;;8.90;6.30;;;29.00;99.90;;;;;;6191359;23;20058;-91
2022/06/13 14:37:47;;;;;;;6.55;6.00;;;29.00;99.90;;;;;;6166688;23;20008;-91
2022/06/13 14:40:22;;;;;;;7.32;6.72;;;29.10;99.90;;;;;;6166516;23;20012;-90
2022/06/13 14:43:11;;;;;;;7.78;7.07;;;29.00;99.90;;;;;;6191440;23;20376;-91
2022/06/13 14:45:39;;;;;;;7.32;5.80;;;28.70;99.90;;;;;;6166685;23;20009;-91
2022/06/13 14:48:12;;;;;;;6.93;6.35;;;28.70;99.90;;;;;;6191286;23;20015;-91
2022/06/13 14:50:46;;;;;;;8.13;6.75;;;28.80;99.90;;;;;;6191334;23;20018;-91
2022/06/13 14:53:48;;;;;;;8.77;6.65;;;29.00;99.90;;;;;;6166434;23;20088;-92
2022/06/13 14:56:15;;;;;;;7.38;6.68;;;29.00;99.90;;;;;;6172082;23;20004;-91
2022/06/13 14:58:50;;;;;;;6.57;6.03;;;29.10;99.90;;;;;;6166487;23;20014;-92
2022/06/13 15:01:18;;;;;;;6.38;5.78;;;29.10;99.90;;;;;;6191468;23;20422;-91
2022/06/13 15:04:00;;;;;;;9.13;5.78;;;29.10;99.90;;;;;;6191070;23;20009;-91
2022/06/13 15:06:34;;;;;;;6.55;5.97;;;29.10;99.90;;;;;;6191117;23;20043;-90
2022/06/13 15:09:19;;;;;;;6.28;5.68;;;29.10;99.90;;;;;;6166522;23;20489;-90
2022/06/13 15:11:47;;;;;;;;;;;29.30;99.90;;;;;;6166965;23;20016;-92
2022/06/13 15:14:16;;;;;;;5.88;5.38;;;29.10;99.90;;;;;;6166424;23;19903;-90
2022/06/13 15:16:45;;;;;;;6.97;5.90;;;29.10;99.90;;;;;;6166129;23;20091;-91
2022/06/13 15:19:12;;;;;;;6.55;5.90;;;29.10;99.90;;;;;;6166429;23;20041;-91
2022/06/13 15:21:55;;;;;;;6.35;5.80;;;29.10;99.90;;;;;;6166457;23;20005;-90
2022/06/13 15:24:22;;;;;;;6.65;6.15;;;29.20;99.90;;;;;;6167240;23;20032;-90
2022/06/13 15:27:01;;;;;;;8.20;6.47;;;29.20;99.90;;;;;;6166130;23;20016;-91
2022/06/13 15:29:27;;;;;;;7.10;6.50;;;29.00;99.90;;;;;;6166160;23;20458;-90
2022/06/13 15:32:06;;;;;;;6.32;5.80;;;28.90;99.90;;;;;;6166060;23;20009;-91
2022/06/13 15:34:32;;;;;;;8.93;6.47;;;28.80;99.90;;;;;;6166304;23;20054;-91
2022/06/13 15:37:04;;;;;;;7.07;6.57;;;28.90;99.90;;;;;;6166291;23;20020;-90
2022/06/13 15:39:34;;;;;;;7.35;6.07;;;29.00;99.90;;;;;;6166175;23;20016;-91
2022/06/13 15:42:20;;;;;;;6.63;6.10;;;29.10;99.90;;;;;;6166130;23;20012;-91
2022/06/13 15:44:47;;;;;;;7.10;6.47;;;29.00;99.90;;;;;;6166566;23;20015;-91
2022/06/13 15:47:14;;;;;;;7.30;6.80;;;28.90;99.90;;;;;;6165968;23;20012;-91
2022/06/13 15:49:44;;;;;;;7.30;6.70;;;28.90;99.90;;;;;;6166078;23;20431;-91
2022/06/13 15:52:13;;;;;;;8.57;7.20;;;28.90;99.90;;;;;;6166200;23;20437;-91
2022/06/13 15:55:08;;;;;;;8.18;7.47;;;29.00;99.90;;;;;;6166040;23;20008;-91
2022/06/13 15:57:46;;;;;;;7.35;6.75;;;28.90;99.90;;;;;;6161269;23;20008;-91
2022/06/13 16:00:26;;;;;;;7.20;6.70;;;29.00;99.90;;;;;;6165902;23;20463;-92
2022/06/13 16:02:56;;;;;;;7.80;7.20;;;28.70;99.90;;;;;;6166110;23;20430;-92
2022/06/13 16:05:28;;;;;;;7.60;7.00;;;28.50;99.90;;;;;;6166026;23;20009;-91
2022/06/13 16:08:00;;;;;;;7.35;6.85;;;28.50;99.90;;;;;;6166482;23;20100;-92
2022/06/13 16:10:36;;;;;;;7.57;6.82;;;28.50;99.90;;;;;;6166088;23;20070;-92
2022/06/13 16:13:07;;;;;;;6.82;6.32;;;28.50;99.90;;;;;;6166315;23;20036;-87
2022/06/13 16:15:37;;;;;;;8.75;7.03;;;28.40;99.90;;;;;;6165660;23;20012;-88
2022/06/13 16:18:13;;;;;;;7.53;6.82;;;28.10;99.90;;;;;;6166976;23;20151;-87
2022/06/13 16:20:43;;;;;;;7.03;6.47;;;28.00;99.90;;;;;;6190760;23;20005;-90
2022/06/13 16:23:19;;;;;;;7.25;6.57;;;28.00;99.90;;;;;;6166234;23;20135;-89
2022/06/13 16:25:47;;;;;;;7.70;7.05;;;28.00;99.90;;;;;;6165745;23;20020;-91
2022/06/13 16:28:17;;;;;;;7.43;6.80;;;27.90;99.90;;;;;;6214917;23;20039;-91
2022/06/13 16:30:47;;;;;;;7.32;6.70;;;27.90;99.90;;;;;;6165440;23;20009;-91
2022/06/13 16:33:21;;;;;;;7.32;6.82;;;28.00;99.90;;;;;;6165755;23;20015;-90
2022/06/13 16:35:53;;;;;;;8.35;6.40;;;28.10;99.90;;;;;;6165635;23;20448;-90
2022/06/13 16:38:20;;;;;;;8.20;7.38;;;27.90;99.90;;;;;;6165529;23;20008;-91
2022/06/13 16:40:53;;;;;;;8.43;7.03;;;27.90;99.90;;;;;;6165809;23;20009;-91
2022/06/13 16:43:34;;;;;;;8.23;7.35;;;27.80;99.90;;;;;;6165918;23;20087;-91
2022/06/13 16:46:08;;;;;;;7.25;6.75;;;27.60;99.90;;;;;;6165610;23;20016;-91
2022/06/13 16:49:01;;;;;;;;;;;27.40;99.90;;;;;;6166224;23;20015;-92
2022/06/13 16:51:31;;;;;;;8.10;6.15;;;27.30;99.90;;;;;;6178981;23;19904;-91
2022/06/13 16:54:01;;;;;;;6.53;5.93;;;27.30;99.90;;;;;;6165528;23;20413;-90
2022/06/13 16:56:33;;;;;;;6.43;5.88;;;27.20;99.90;;;;;;6165793;23;20008;-92
2022/06/13 16:59:06;;;;;;;7.07;6.15;;;27.20;99.90;;;;;;6215278;23;20013;-91
2022/06/13 17:01:42;;;;;;;6.30;5.80;;;27.20;99.90;;;;;;6190707;23;20036;-91
2022/06/13 17:04:10;;;;;;;6.70;6.20;;;27.20;99.90;;;;;;6165739;23;20013;-91
2022/06/13 17:06:44;;;;;;;10.38;6.25;;;27.20;99.90;;;;;;6165549;23;20155;-91
2022/06/13 17:09:25;;;;;;;7.05;6.00;;;27.10;99.90;;;;;;6165691;23;20138;-91
2022/06/13 17:11:51;;;;;;;6.15;5.57;;;27.00;99.90;;;;;;6165609;23;20072;-90
2022/06/13 17:14:36;;;;;;;6.30;5.72;;;27.00;99.90;;;;;;6190605;23;20005;-90
2022/06/13 17:17:09;;;;;;;5.72;5.28;;;27.00;99.90;;;;;;6190057;23;20043;-91
2022/06/13 17:19:40;;;;;;;6.17;5.60;;;27.00;99.90;;;;;;6166249;23;20015;-93
2022/06/13 17:22:07;;;;;;;6.18;5.60;;;26.90;99.90;;;;;;6166497;23;20259;-91
2022/06/13 17:24:35;;;;;;;5.82;5.43;;;26.90;99.90;;;;;;6165610;23;20011;-91
2022/06/13 17:32:31;;;;;;;5.82;5.28;;;26.70;99.90;;;;;;6190110;23;20442;-91
2022/06/13 17:34:57;;;;;;;6.85;5.30;;;26.70;99.90;;;;;;6165320;23;20488;-90
2022/06/13 17:37:24;;;;;;;6.00;5.40;;;26.60;99.90;;;;;;6165245;23;20008;-91
2022/06/13 17:39:51;;;;;;;6.45;5.75;;;26.60;99.90;;;;;;6166808;23;20004;-92
2022/06/13 17:42:22;;;;;;;6.30;5.53;;;26.50;99.90;;;;;;6167567;23;20015;-91
2022/06/13 17:44:49;;;;;;;5.65;5.10;;;26.40;99.90;;;;;;6167516;23;20004;-92
2022/06/13 17:47:16;;;;;;;5.70;5.10;;;26.40;99.90;;;;;;6166864;23;20027;-91
2022/06/13 17:49:44;;;;;;;6.25;4.93;;;26.40;99.90;;;;;;6168085;23;20059;-91
2022/06/13 17:52:13;;;;;;;5.40;4.88;;;26.30;99.90;;;;;;6167183;23;20008;-91
2022/06/13 17:54:40;;;;;;;8.93;4.80;;;26.30;99.90;;;;;;6167294;23;20092;-91
2022/06/13 17:57:11;;;;;;;6.05;4.45;;;26.20;99.90;;;;;;6167421;23;20430;-92
2022/06/13 17:59:39;;;;;;;5.10;4.07;;;26.10;99.90;;;;;;6167952;23;20055;-92
2022/06/13 18:02:10;;;;;;;6.72;4.50;;;26.00;99.90;;;;;;6167378;23;20012;-92
2022/06/13 18:04:42;;;;;;;7.68;4.15;;;26.00;99.90;;;;;;6169167;23;20004;-91
2022/06/13 18:07:10;;;;;;;6.25;4.18;;;25.80;99.90;;;;;;6166998;23;20181;-93
2022/06/13 18:09:40;;;;;;;6.95;4.35;;;25.80;99.90;;;;;;6168520;23;20441;-93
2022/06/13 18:12:06;;;;;;;6.63;4.57;;;25.70;99.90;;;;;;6168429;23;20454;-92
2022/06/13 18:14:33;;;;;;;6.50;4.40;;;25.60;99.90;;;;;;6167186;23;20005;-92
2022/06/13 18:17:00;;;;;;;7.15;4.22;;;25.50;99.90;;;;;;6166987;23;20091;-93
2022/06/13 18:19:30;;;;;;;6.05;3.95;;;25.50;99.90;;;;;;6167024;23;20043;-91
2022/06/13 18:22:00;;;;;;;6.47;3.92;;;25.40;99.90;;;;;;6166927;23;20005;-93
2022/06/13 18:24:27;;;;;;;8.65;4.10;;;25.30;99.90;;;;;;6167285;23;20008;-92
2022/06/13 18:27:10;;;;;;;12.45;4.63;;;25.20;99.90;;;;;;6167634;23;20071;-91
2022/06/13 18:29:39;;;;;;;10.65;4.63;;;25.10;99.90;;;;;;6180821;23;19997;-92
2022/06/13 18:32:06;;;;;;;8.32;4.03;;;25.10;99.90;;;;;;6194962;23;20000;-92
2022/06/13 18:34:33;;;;;;;5.68;4.00;;;25.00;99.90;;;;;;6181872;23;20005;-91
2022/06/13 18:37:00;;;;;;;7.07;4.30;;;24.90;99.90;;;;;;6166933;23;20008;-92
2022/06/13 18:39:28;;;;;;;6.25;3.75;;;24.70;99.90;;;;;;6166819;23;20005;-92
2022/06/13 18:41:55;;;;;;;4.90;3.83;;;24.70;99.90;;;;;;6166938;23;20009;-92
2022/06/13 18:44:21;;;;;;;6.25;3.88;;;24.60;99.90;;;;;;6167038;23;20009;-92
2022/06/13 18:46:48;;;;;;;7.53;3.45;;;24.50;99.90;;;;;;6167135;23;20020;-92
2022/06/13 18:49:14;;;;;;;10.85;3.70;;;24.40;99.90;;;;;;6167244;23;20379;-93
2022/06/13 18:51:41;;;;;;;5.10;3.70;;;24.40;99.90;;;;;;6166253;23;20041;-91
2022/06/13 23:39:14;;;;;;;6.45;4.35;;;21.80;99.90;;;;;;6203086;22;20678;31
2022/06/13 23:41:41;;;;;;;9.23;4.93;;;21.70;99.90;;;;;;6149536;23;20138;-86
2022/06/13 23:44:07;;;;;;;9.90;5.07;;;21.70;99.90;;;;;;6156360;23;20006;-88
2022/06/13 23:46:36;;;;;;;9.77;5.22;;;21.60;99.90;;;;;;6131565;23;20064;-89
2022/06/13 23:49:03;;;;;;;7.38;5.18;;;21.50;99.90;;;;;;6156498;23;20044;-90
2022/06/13 23:51:31;;;;;;;9.30;5.00;;;21.50;99.90;;;;;;6177230;23;20060;-88
